createdAt,value
2018-04-28T00:00:26.204Z,2.90
2018-04-28T00:02:32.348Z,3.17
2018-04-28T00:04:36.413Z,2.60
2018-04-28T00:06:40.428Z,2.77
2018-04-28T00:08:44.443Z,3.13
2018-04-28T00:10:48.490Z,2.50
2018-04-28T00:12:52.659Z,2.90
2018-04-28T00:14:56.765Z,2.50
2018-04-28T00:17:00.774Z,2.73
2018-04-28T00:19:04.805Z,2.40
2018-04-28T00:21:08.847Z,2.93
2018-04-28T00:23:12.884Z,2.60
2018-04-28T00:25:31.815Z,2.80
2018-04-28T00:27:35.840Z,2.20
2018-04-28T00:29:44.776Z,2.43
2018-04-28T00:31:53.906Z,2.60
2018-04-28T00:33:58.875Z,2.90
2018-04-28T00:36:06.666Z,2.80
2018-04-28T00:38:10.680Z,2.83
2018-04-28T00:40:20.540Z,2.80
2018-04-28T00:42:30.493Z,2.40
2018-04-28T00:44:37.484Z,2.90
2018-04-28T00:46:45.311Z,3.07
2018-04-28T00:48:49.328Z,3.00
2018-04-28T00:50:55.373Z,2.60
2018-04-28T00:52:59.388Z,3.17
2018-04-28T00:55:18.294Z,3.30
2018-04-28T00:57:23.159Z,3.73
2018-04-28T00:59:27.196Z,3.37
2018-04-28T01:01:39.219Z,2.97
2018-04-28T01:06:18.776Z,2.53
2018-04-28T01:08:23.535Z,2.93
2018-04-28T01:10:29.415Z,3.10
2018-04-28T01:12:43.347Z,3.77
2018-04-28T01:14:47.358Z,3.43
2018-04-28T01:16:51.463Z,4.07
2018-04-28T01:18:57.192Z,2.80
2018-04-28T01:21:01.227Z,3.03
2018-04-28T01:23:07.110Z,2.83
2018-04-28T01:25:11.135Z,2.67
2018-04-28T01:27:15.183Z,2.70
2018-04-28T01:29:19.188Z,3.03
2018-04-28T01:31:23.259Z,2.90
2018-04-28T01:33:27.289Z,2.90
2018-04-28T01:35:31.381Z,2.63
2018-04-28T01:37:41.370Z,2.50
2018-04-28T01:40:00.261Z,2.80
2018-04-28T01:42:10.231Z,3.33
2018-04-28T01:44:19.335Z,2.47
2018-04-28T01:46:24.190Z,2.83
2018-04-28T01:48:34.148Z,2.43
2018-04-28T01:50:41.160Z,2.50
2018-04-28T01:52:45.177Z,2.60
2018-04-28T01:54:52.149Z,2.40
2018-04-28T01:57:11.063Z,2.97
2018-04-28T01:59:15.110Z,2.50
2018-04-28T02:01:19.957Z,2.47
2018-04-28T02:03:23.967Z,2.90
2018-04-28T02:05:28.012Z,2.67
2018-04-28T02:07:42.717Z,2.23
2018-04-28T02:09:51.702Z,2.53
2018-04-28T02:12:10.630Z,2.60
2018-04-28T02:14:26.410Z,3.40
2018-04-28T02:16:35.132Z,2.30
2018-04-28T02:18:40.165Z,2.93
2018-04-28T02:20:49.957Z,2.40
2018-04-28T02:23:02.837Z,2.90
2018-04-28T02:25:07.497Z,3.00
2018-04-28T02:27:11.565Z,2.20
2018-04-28T02:29:15.583Z,3.20
2018-04-28T02:31:22.454Z,2.03
2018-04-28T02:33:29.370Z,2.73
2018-04-28T02:35:43.455Z,3.00
2018-04-28T02:37:49.551Z,2.83
2018-04-28T02:40:09.198Z,2.60
2018-04-28T02:42:29.992Z,2.60
2018-04-28T02:44:36.008Z,2.60
2018-04-28T02:46:42.809Z,2.77
2018-04-28T02:48:47.736Z,3.07
2018-04-28T02:50:51.927Z,2.17
2018-04-28T02:53:16.831Z,2.60
2018-04-28T02:55:21.740Z,2.43
2018-04-28T02:57:26.676Z,2.83
2018-04-28T02:59:30.737Z,2.40
2018-04-28T03:01:35.821Z,3.23
2018-04-28T03:03:39.928Z,2.10
2018-04-28T03:05:43.957Z,2.27
2018-04-28T03:08:03.708Z,2.33
2018-04-28T03:10:24.451Z,2.70
2018-04-28T03:12:28.473Z,2.50
2018-04-28T03:14:32.497Z,2.27
2018-04-28T03:16:36.630Z,2.50
2018-04-28T03:18:41.425Z,2.87
2018-04-28T03:20:45.440Z,2.30
2018-04-28T03:22:50.315Z,2.40
2018-04-28T03:24:54.340Z,3.37
2018-04-28T03:26:59.204Z,2.77
2018-04-28T03:29:03.237Z,2.70
2018-04-28T03:31:08.341Z,2.13
2018-04-28T03:33:13.129Z,2.57
2018-04-28T03:35:17.945Z,2.40
2018-04-28T03:37:21.955Z,2.40
2018-04-28T03:39:25.963Z,2.70
2018-04-28T03:41:30.000Z,2.47
2018-04-28T03:43:34.135Z,2.77
2018-04-28T03:45:38.956Z,2.80
2018-04-28T03:47:43.878Z,2.70
2018-04-28T03:49:47.924Z,3.17
2018-04-28T03:51:53.903Z,2.03
2018-04-28T03:54:00.692Z,3.17
2018-04-28T03:56:05.080Z,2.83
2018-04-28T03:58:14.969Z,2.80
2018-04-28T04:00:25.173Z,2.43
2018-04-28T04:02:34.957Z,2.70
2018-04-28T04:04:38.965Z,2.63
2018-04-28T04:06:43.781Z,2.60
2018-04-28T04:08:48.770Z,2.77
2018-04-28T04:11:08.659Z,2.80
2018-04-28T04:13:16.534Z,2.83
2018-04-28T04:15:41.352Z,2.40
2018-04-28T04:18:03.319Z,2.70
2018-04-28T04:20:24.082Z,2.80
2018-04-28T04:22:32.729Z,2.93
2018-04-28T04:24:36.905Z,2.70
2018-04-28T04:26:43.876Z,2.30
2018-04-28T04:28:53.903Z,3.00
2018-04-28T04:30:58.823Z,2.70
2018-04-28T04:33:06.746Z,2.47
2018-04-28T04:35:29.582Z,2.37
2018-04-28T04:37:39.672Z,2.43
2018-04-28T04:39:46.551Z,2.53
2018-04-28T04:41:56.483Z,2.83
2018-04-28T04:44:15.386Z,3.13
2018-04-28T04:46:40.143Z,3.37
2018-04-28T04:48:44.927Z,3.10
2018-04-28T04:50:54.826Z,3.33
2018-04-28T04:53:13.786Z,2.63
2018-04-28T04:55:18.685Z,3.33
2018-04-28T04:57:24.412Z,2.10
2018-04-28T04:59:34.328Z,2.80
2018-04-28T05:01:59.392Z,2.70
2018-04-28T05:04:22.146Z,2.77
2018-04-28T05:06:32.002Z,2.53
2018-04-28T05:08:42.031Z,2.77
2018-04-28T05:10:51.955Z,2.63
2018-04-28T05:13:05.238Z,2.63
2018-04-28T05:15:15.130Z,2.83
2018-04-28T05:17:19.133Z,2.93
2018-04-28T05:19:29.670Z,2.43
2018-04-28T05:21:49.493Z,3.10
2018-04-28T05:23:59.364Z,2.40
2018-04-28T05:26:11.191Z,2.70
2018-04-28T05:28:21.089Z,3.20
2018-04-28T05:30:31.917Z,2.90
2018-04-28T05:32:42.752Z,3.67
2018-04-28T05:34:58.560Z,3.20
2018-04-28T05:37:21.541Z,2.63
2018-04-28T05:39:31.287Z,3.10
2018-04-28T05:41:53.138Z,2.73
2018-04-28T05:44:03.072Z,2.80
2018-04-28T05:46:10.927Z,3.57
2018-04-28T05:48:19.968Z,3.60
2018-04-28T05:50:29.907Z,2.63
2018-04-28T05:52:40.040Z,3.77
2018-04-28T05:54:48.210Z,2.50
2018-04-28T05:57:07.150Z,2.67
2018-04-28T05:59:17.032Z,2.87
2018-04-28T06:01:26.875Z,2.77
2018-04-28T06:03:31.051Z,3.33
2018-04-28T06:05:41.070Z,2.90
2018-04-28T06:07:45.100Z,3.20
2018-04-28T06:09:57.042Z,3.10
2018-04-28T06:12:06.961Z,3.07
2018-04-28T06:14:16.927Z,2.73
2018-04-28T06:16:27.007Z,2.87
2018-04-28T06:18:35.003Z,3.03
2018-04-28T06:20:39.796Z,2.87
2018-04-28T06:22:43.966Z,2.80
2018-04-28T06:24:48.050Z,3.33
2018-04-28T06:26:52.062Z,3.63
2018-04-28T06:28:56.130Z,4.03
2018-04-28T06:31:00.145Z,3.70
2018-04-28T06:33:10.280Z,3.13
2018-04-28T06:35:14.327Z,2.90
2018-04-28T06:37:18.400Z,2.77
2018-04-28T06:39:22.470Z,3.20
2018-04-28T06:41:26.523Z,2.87
2018-04-28T06:43:30.538Z,2.90
2018-04-28T06:45:34.588Z,3.00
2018-04-28T06:47:38.661Z,2.60
2018-04-28T06:49:42.673Z,3.23
2018-04-28T06:51:46.692Z,2.83
2018-04-28T06:53:50.718Z,3.43
2018-04-28T06:55:54.767Z,3.23
2018-04-28T06:57:58.815Z,3.03
2018-04-28T07:00:05.416Z,3.07
2018-04-28T07:02:09.487Z,2.90
2018-04-28T07:04:13.497Z,3.03
2018-04-28T07:06:17.565Z,2.90
2018-04-28T07:08:21.655Z,2.93
2018-04-28T07:10:26.241Z,2.70
2018-04-28T07:12:30.352Z,3.07
2018-04-28T07:14:34.380Z,3.50
2018-04-28T07:16:38.441Z,3.43
2018-04-28T07:18:42.454Z,3.00
2018-04-28T07:20:46.488Z,3.13
2018-04-28T07:22:50.605Z,3.33
2018-04-28T07:24:54.630Z,3.00
2018-04-28T07:26:58.683Z,3.40
2018-04-28T07:29:02.740Z,3.37
2018-04-28T07:31:06.811Z,3.30
2018-04-28T07:33:10.859Z,2.83
2018-04-28T07:35:14.955Z,3.27
2018-04-28T07:37:18.965Z,3.90
2018-04-28T07:39:23.019Z,3.00
2018-04-28T07:41:27.066Z,3.20
2018-04-28T07:43:31.088Z,2.90
2018-04-28T07:45:35.137Z,3.10
2018-04-28T07:47:39.207Z,3.00
2018-04-28T07:49:43.247Z,2.77
2018-04-28T07:51:47.288Z,3.13
2018-04-28T07:53:51.354Z,3.60
2018-04-28T07:55:55.399Z,3.27
2018-04-28T07:57:59.421Z,3.07
2018-04-28T08:00:04.581Z,3.43
2018-04-28T08:02:08.608Z,2.80
2018-04-28T08:04:12.635Z,3.87
2018-04-28T08:06:16.695Z,3.33
2018-04-28T08:08:20.811Z,3.47
2018-04-28T08:10:24.878Z,3.07
2018-04-28T08:12:28.930Z,3.20
2018-04-28T08:14:33.195Z,3.37
2018-04-28T08:16:37.246Z,2.80
2018-04-28T08:18:41.280Z,3.10
2018-04-28T08:20:45.825Z,3.97
2018-04-28T08:22:49.889Z,2.90
2018-04-28T08:24:53.902Z,3.63
2018-04-28T08:26:57.966Z,3.40
2018-04-28T08:29:01.988Z,3.50
2018-04-28T08:31:06.262Z,2.73
2018-04-28T08:33:10.308Z,3.50
2018-04-28T08:35:14.327Z,3.40
2018-04-28T08:37:18.506Z,2.73
2018-04-28T08:39:22.479Z,3.10
2018-04-28T08:41:26.492Z,3.13
2018-04-28T08:43:30.542Z,3.70
2018-04-28T08:45:34.630Z,3.47
2018-04-28T08:47:38.610Z,3.07
2018-04-28T08:49:42.707Z,3.00
2018-04-28T08:51:46.879Z,3.20
2018-04-28T08:53:50.930Z,3.07
2018-04-28T08:55:54.962Z,3.10
2018-04-28T08:58:05.063Z,2.87
2018-04-28T09:00:15.070Z,2.90
2018-04-28T09:02:19.080Z,3.10
2018-04-28T09:04:23.108Z,3.17
2018-04-28T09:06:27.103Z,3.30
2018-04-28T09:08:31.124Z,2.80
2018-04-28T09:10:35.238Z,3.93
2018-04-28T09:12:39.244Z,4.00
2018-04-28T09:14:43.254Z,2.50
2018-04-28T09:16:47.302Z,3.33
2018-04-28T09:18:51.329Z,2.77
2018-04-28T09:20:55.619Z,3.70
2018-04-28T09:22:59.683Z,3.30
2018-04-28T09:25:03.702Z,2.97
2018-04-28T09:27:07.720Z,3.27
2018-04-28T09:29:11.758Z,2.53
2018-04-28T09:31:15.781Z,2.60
2018-04-28T09:33:19.850Z,3.17
2018-04-28T09:35:23.895Z,3.10
2018-04-28T09:37:27.928Z,2.90
2018-04-28T09:39:31.983Z,2.73
2018-04-28T09:41:35.977Z,2.47
2018-04-28T09:43:40.008Z,2.73
2018-04-28T09:45:44.030Z,3.20
2018-04-28T09:47:48.198Z,2.73
2018-04-28T09:49:52.451Z,2.90
2018-04-28T09:51:56.486Z,2.40
2018-04-28T09:54:00.541Z,3.20
2018-04-28T09:56:04.584Z,3.03
2018-04-28T09:58:08.616Z,3.13
2018-04-28T10:00:23.508Z,2.80
2018-04-28T10:02:27.544Z,2.50
2018-04-28T10:04:31.593Z,2.57
2018-04-28T10:06:35.672Z,2.67
2018-04-28T10:08:39.691Z,3.40
2018-04-28T10:10:43.741Z,2.53
2018-04-28T10:12:47.844Z,3.17
2018-04-28T10:14:51.877Z,3.03
2018-04-28T10:16:55.926Z,2.60
2018-04-28T10:18:59.990Z,2.80
2018-04-28T10:21:04.031Z,3.00
2018-04-28T10:23:08.078Z,3.13
2018-04-28T10:25:12.156Z,2.50
2018-04-28T10:27:16.203Z,2.00
2018-04-28T10:29:20.212Z,3.37
2018-04-28T10:31:24.221Z,2.77
2018-04-28T10:33:28.281Z,2.93
2018-04-28T10:35:32.289Z,2.73
2018-04-28T10:37:36.326Z,2.63
2018-04-28T10:39:40.374Z,3.10
2018-04-28T10:41:44.519Z,2.97
2018-04-28T10:43:49.608Z,3.07
2018-04-28T10:45:53.618Z,3.00
2018-04-28T10:47:57.739Z,2.20
2018-04-28T10:50:01.774Z,2.30
2018-04-28T10:52:05.835Z,2.50
2018-04-28T10:54:09.857Z,2.87
2018-04-28T10:56:13.878Z,2.50
2018-04-28T10:58:17.883Z,2.63
2018-04-28T11:00:21.958Z,3.00
2018-04-28T11:02:25.963Z,2.73
2018-04-28T11:04:29.993Z,3.47
2018-04-28T11:06:34.020Z,2.80
2018-04-28T11:08:38.050Z,2.73
2018-04-28T11:10:42.093Z,2.50
2018-04-28T11:12:46.327Z,3.00
2018-04-28T11:14:50.321Z,3.37
2018-04-28T11:16:54.306Z,3.27
2018-04-28T11:18:58.353Z,2.77
2018-04-28T11:21:02.400Z,2.80
2018-04-28T11:23:06.409Z,2.87
2018-04-28T11:25:10.438Z,3.00
2018-04-28T11:27:14.441Z,2.70
2018-04-28T11:29:18.448Z,3.13
2018-04-28T11:31:22.490Z,2.60
2018-04-28T11:33:26.501Z,2.60
2018-04-28T11:35:30.534Z,2.43
2018-04-28T11:37:34.575Z,2.50
2018-04-28T11:39:38.590Z,2.70
2018-04-28T11:41:42.636Z,2.90
2018-04-28T11:43:46.658Z,2.10
2018-04-28T11:45:50.680Z,2.77
2018-04-28T11:47:54.712Z,2.40
2018-04-28T11:49:58.719Z,2.70
2018-04-28T11:52:02.891Z,2.47
2018-04-28T11:54:06.918Z,2.27
2018-04-28T11:56:10.928Z,2.30
2018-04-28T11:58:15.123Z,2.20
2018-04-28T12:00:19.260Z,2.00
2018-04-28T12:02:23.766Z,2.07
2018-04-28T12:04:27.861Z,2.73
2018-04-28T12:06:31.863Z,2.33
2018-04-28T12:08:35.959Z,2.50
2018-04-28T12:10:40.010Z,2.43
2018-04-28T12:12:44.043Z,2.30
2018-04-28T12:14:48.078Z,3.17
2018-04-28T12:16:52.076Z,2.60
2018-04-28T12:18:56.115Z,2.37
2018-04-28T12:21:00.126Z,2.47
2018-04-28T12:23:04.159Z,2.60
2018-04-28T12:25:08.316Z,2.53
2018-04-28T12:27:12.323Z,2.73
2018-04-28T12:29:17.172Z,3.00
2018-04-28T12:31:22.289Z,2.70
2018-04-28T12:33:26.361Z,2.40
2018-04-28T12:35:30.367Z,3.00
2018-04-28T12:37:34.370Z,2.60
2018-04-28T12:39:38.404Z,2.63
2018-04-28T12:41:45.382Z,2.83
2018-04-28T12:43:49.403Z,2.67
2018-04-28T12:45:53.618Z,2.40
2018-04-28T12:47:57.637Z,2.20
2018-04-28T12:50:01.647Z,2.07
2018-04-28T12:52:05.684Z,2.37
2018-04-28T12:54:09.728Z,2.93
2018-04-28T12:56:13.755Z,2.17
2018-04-28T12:58:17.784Z,2.30
2018-04-28T13:00:23.864Z,2.30
2018-04-28T13:02:27.913Z,2.30
2018-04-28T13:04:31.943Z,2.27
2018-04-28T13:06:35.963Z,2.20
2018-04-28T13:08:40.035Z,2.20
2018-04-28T13:10:44.043Z,1.97
2018-04-28T13:12:48.135Z,2.10
2018-04-28T13:14:52.152Z,2.30
2018-04-28T13:16:56.197Z,1.70
2018-04-28T13:19:00.238Z,2.30
2018-04-28T13:21:04.258Z,2.10
2018-04-28T13:23:08.308Z,1.90
2018-04-28T13:25:13.177Z,2.33
2018-04-28T13:27:17.466Z,2.10
2018-04-28T13:29:21.470Z,2.50
2018-04-28T13:31:25.533Z,2.13
2018-04-28T13:33:40.383Z,2.07
2018-04-28T13:35:48.837Z,2.43
2018-04-28T13:38:03.862Z,2.10
2018-04-28T13:40:07.971Z,2.30
2018-04-28T13:42:12.099Z,2.60
2018-04-28T13:44:25.144Z,2.20
2018-04-28T13:46:33.676Z,1.77
2018-04-28T13:48:42.290Z,2.00
2018-04-28T13:50:46.410Z,2.00
2018-04-28T13:52:59.393Z,2.13
2018-04-28T13:55:03.538Z,2.13
2018-04-28T13:57:07.654Z,2.10
2018-04-28T13:59:18.194Z,2.40
2018-04-28T14:01:29.121Z,1.80
2018-04-28T14:03:37.589Z,2.57
2018-04-28T14:07:50.604Z,2.50
2018-04-28T14:09:59.329Z,2.17
2018-04-28T14:12:07.889Z,2.10
2018-04-28T14:14:16.447Z,1.93
2018-04-28T14:16:29.178Z,2.17
2018-04-28T14:18:33.303Z,2.40
2018-04-28T14:20:37.370Z,1.77
2018-04-28T14:22:48.088Z,2.33
2018-04-28T14:24:56.311Z,2.20
2018-04-28T14:27:02.628Z,2.50
2018-04-28T14:29:08.964Z,2.10
2018-04-28T14:31:17.620Z,2.50
2018-04-28T14:33:23.639Z,2.33
2018-04-28T14:35:38.799Z,2.50
2018-04-28T14:37:42.895Z,2.10
2018-04-28T14:39:55.621Z,2.27
2018-04-28T14:42:12.849Z,2.27
2018-04-28T14:44:21.473Z,2.10
2018-04-28T14:46:37.466Z,2.60
2018-04-28T14:48:41.516Z,1.87
2018-04-28T14:50:50.104Z,1.93
2018-04-28T14:52:56.539Z,2.30
2018-04-28T14:55:04.658Z,2.50
2018-04-28T14:57:13.149Z,2.20
2018-04-28T14:59:26.345Z,2.20
2018-04-28T15:01:41.081Z,2.20
2018-04-28T15:03:51.971Z,2.17
2018-04-28T15:06:00.279Z,2.30
2018-04-28T15:08:10.888Z,2.10
2018-04-28T15:10:17.271Z,2.40
2018-04-28T15:12:25.825Z,2.10
2018-04-28T15:14:36.768Z,2.10
2018-04-28T15:16:43.078Z,2.20
2018-04-28T15:18:49.487Z,2.03
2018-04-28T15:21:02.483Z,2.27
2018-04-28T15:23:10.741Z,2.13
2018-04-28T15:25:20.912Z,2.07
2018-04-28T15:27:33.513Z,2.40
2018-04-28T15:29:40.016Z,2.17
2018-04-28T15:31:50.587Z,2.07
2018-04-28T15:34:05.868Z,1.90
2018-04-28T15:36:12.252Z,2.30
2018-04-28T15:38:20.416Z,2.27
2018-04-28T15:40:26.824Z,1.83
2018-04-28T15:42:35.380Z,1.93
2018-04-28T15:44:43.849Z,2.03
2018-04-28T15:46:53.979Z,2.23
2018-04-28T15:49:02.296Z,2.10
2018-04-28T15:51:10.750Z,2.03
2018-04-28T15:53:14.912Z,2.10
2018-04-28T15:55:21.452Z,1.90
2018-04-28T15:57:34.251Z,2.37
2018-04-28T15:59:44.986Z,1.70
2018-04-28T16:01:55.738Z,2.10
2018-04-28T16:04:12.857Z,2.33
2018-04-28T16:06:21.346Z,1.97
2018-04-28T16:08:27.438Z,1.90
2018-04-28T16:10:31.543Z,2.17
2018-04-28T16:12:42.120Z,2.53
2018-04-28T16:14:52.666Z,2.57
2018-04-28T16:16:58.713Z,2.40
2018-04-28T16:19:13.979Z,2.20
2018-04-28T16:21:26.659Z,2.00
2018-04-28T16:23:39.069Z,2.03
2018-04-28T16:25:52.043Z,2.13
2018-04-28T16:28:11.656Z,3.50
2018-04-28T16:30:22.436Z,2.20
2018-04-28T16:32:37.485Z,2.73
2018-04-28T16:34:46.055Z,2.40
2018-04-28T16:37:07.122Z,2.30
2018-04-28T16:39:19.803Z,1.70
2018-04-28T16:41:23.955Z,2.57
2018-04-28T16:43:32.635Z,2.20
2018-04-28T16:45:48.207Z,2.10
2018-04-28T16:47:52.259Z,2.20
2018-04-28T16:50:02.902Z,2.03
2018-04-28T16:52:11.156Z,3.00
2018-04-28T16:54:17.228Z,2.13
2018-04-28T16:56:27.736Z,2.30
2018-04-28T16:58:32.020Z,2.40
2018-04-28T17:00:40.505Z,2.57
2018-04-28T17:02:51.092Z,2.67
2018-04-28T17:05:01.560Z,2.90
2018-04-28T17:07:05.888Z,2.40
2018-04-28T17:09:16.699Z,2.43
2018-04-28T17:11:27.499Z,2.63
2018-04-28T17:13:33.809Z,2.53
2018-04-28T17:15:40.071Z,1.97
2018-04-28T17:17:52.537Z,2.63
2018-04-28T17:20:14.601Z,2.17
2018-04-28T17:22:27.150Z,2.17
2018-04-28T17:24:35.846Z,2.10
2018-04-28T17:26:44.535Z,2.33
2018-04-28T17:28:50.873Z,2.50
2018-04-28T17:30:57.216Z,2.70
2018-04-28T17:33:03.610Z,2.70
2018-04-28T17:35:07.635Z,2.57
2018-04-28T17:37:11.704Z,2.40
2018-04-28T17:39:16.865Z,2.30
2018-04-28T17:41:23.041Z,2.40
2018-04-28T17:43:29.323Z,2.30
2018-04-28T17:45:35.563Z,2.70
2018-04-28T17:47:44.111Z,2.30
2018-04-28T17:49:50.717Z,2.07
2018-04-28T17:51:59.068Z,2.20
2018-04-28T17:54:05.286Z,2.47
2018-04-28T17:56:11.590Z,2.63
2018-04-28T17:58:15.612Z,2.90
2018-04-28T18:00:22.014Z,2.60
2018-04-28T18:02:26.015Z,2.70
2018-04-28T18:04:34.819Z,2.73
2018-04-28T18:06:41.203Z,2.43
2018-04-28T18:08:47.524Z,2.53
2018-04-28T18:10:51.614Z,2.40
2018-04-28T18:12:55.621Z,2.50
2018-04-28T18:14:59.677Z,2.50
2018-04-28T18:17:03.751Z,2.70
2018-04-28T18:19:07.767Z,2.90
2018-04-28T18:21:11.794Z,3.10
2018-04-28T18:23:15.946Z,3.00
2018-04-28T18:25:19.994Z,3.30
2018-04-28T18:27:24.017Z,3.10
2018-04-28T18:29:28.038Z,3.50
2018-04-28T18:31:32.054Z,3.03
2018-04-28T18:33:36.158Z,2.90
2018-04-28T18:35:40.179Z,2.70
2018-04-28T18:37:44.288Z,3.53
2018-04-28T18:39:48.386Z,2.80
2018-04-28T18:41:52.403Z,2.77
2018-04-28T18:43:56.450Z,3.43
2018-04-28T18:46:00.669Z,3.13
2018-04-28T18:48:04.742Z,2.80
2018-04-28T18:50:08.903Z,2.63
2018-04-28T18:52:12.948Z,2.40
2018-04-28T18:54:17.569Z,2.63
2018-04-28T18:56:21.593Z,2.80
2018-04-28T18:58:27.587Z,2.50
2018-04-28T19:00:31.709Z,2.40
2018-04-28T19:02:35.855Z,3.23
2018-04-28T19:04:39.929Z,2.90
2018-04-28T19:06:44.066Z,2.67
2018-04-28T19:08:48.171Z,2.37
2018-04-28T19:10:53.230Z,2.53
2018-04-28T19:12:57.248Z,2.70
2018-04-28T19:15:01.303Z,2.87
2018-04-28T19:17:05.402Z,2.37
2018-04-28T19:19:09.492Z,2.90
2018-04-28T19:21:13.518Z,3.30
2018-04-28T19:23:17.570Z,2.97
2018-04-28T19:25:21.748Z,3.87
2018-04-28T19:27:25.868Z,3.07
2018-04-28T19:29:29.918Z,3.20
2018-04-28T19:31:34.009Z,3.80
2018-04-28T19:33:38.185Z,3.57
2018-04-28T19:35:42.300Z,3.80
2018-04-28T19:37:46.367Z,3.63
2018-04-28T19:39:50.403Z,3.60
2018-04-28T19:41:54.471Z,3.93
2018-04-28T19:43:58.504Z,3.43
2018-04-28T19:46:02.621Z,3.33
2018-04-28T19:48:06.679Z,3.10
2018-04-28T19:50:10.711Z,3.03
2018-04-28T19:52:14.751Z,2.93
2018-04-28T19:54:18.791Z,3.50
2018-04-28T19:56:22.854Z,3.10
2018-04-28T19:58:26.941Z,3.10
2018-04-28T20:00:31.001Z,3.17
2018-04-28T20:02:35.054Z,3.30
2018-04-28T20:04:39.157Z,3.13
2018-04-28T20:06:43.188Z,3.77
2018-04-28T20:08:47.284Z,3.63
2018-04-28T20:10:51.324Z,3.60
2018-04-28T20:12:55.362Z,3.50
2018-04-28T20:14:59.413Z,4.30
2018-04-28T20:17:03.422Z,4.80
2018-04-28T20:19:07.443Z,4.70
2018-04-28T20:21:11.476Z,4.20
2018-04-28T20:23:21.527Z,4.93
2018-04-28T20:25:25.559Z,5.50
2018-04-28T20:27:29.595Z,5.57
2018-04-28T20:29:33.627Z,5.43
2018-04-28T20:31:37.818Z,5.03
2018-04-28T20:33:41.908Z,5.20
2018-04-28T20:35:46.035Z,5.30
2018-04-28T20:37:50.019Z,6.13
2018-04-28T20:39:54.020Z,5.80
2018-04-28T20:41:58.050Z,5.93
2018-04-28T20:44:02.052Z,6.40
2018-04-28T20:46:06.088Z,5.90
2018-04-28T20:48:10.100Z,5.70
2018-04-28T20:50:14.146Z,4.60
2018-04-28T20:52:18.297Z,5.27
2018-04-28T20:54:22.695Z,4.90
2018-04-28T20:56:28.372Z,4.60
2018-04-28T20:58:34.890Z,4.90
2018-04-28T21:00:38.970Z,5.20
2018-04-28T21:02:43.027Z,5.40
2018-04-28T21:04:47.315Z,4.90
2018-04-28T21:06:55.844Z,4.23
2018-04-28T21:08:59.911Z,3.63
2018-04-28T21:11:03.990Z,5.07
2018-04-28T21:13:16.582Z,4.37
2018-04-28T21:15:22.746Z,4.40
2018-04-28T21:17:33.229Z,4.47
2018-04-28T21:19:41.922Z,4.90
2018-04-28T21:21:50.234Z,4.30
2018-04-28T21:24:03.276Z,5.13
2018-04-28T21:26:18.247Z,5.03
2018-04-28T21:28:30.949Z,4.70
2018-04-28T21:30:43.537Z,4.30
2018-04-28T21:32:47.586Z,5.60
2018-04-28T21:34:56.171Z,5.70
2018-04-28T21:37:02.475Z,5.80
2018-04-28T21:39:06.522Z,5.70
2018-04-28T21:41:10.532Z,5.90
2018-04-28T21:43:16.841Z,6.30
2018-04-28T21:45:20.864Z,6.40
2018-04-28T21:47:24.905Z,6.37
2018-04-28T21:49:28.992Z,5.63
2018-04-28T21:51:33.064Z,6.60
2018-04-28T21:53:37.101Z,6.80
2018-04-28T21:55:41.087Z,6.03
2018-04-28T21:57:47.443Z,6.30
2018-04-28T21:59:51.446Z,6.17
2018-04-28T22:01:57.749Z,5.90
2018-04-28T22:04:03.925Z,6.57
2018-04-28T22:06:10.218Z,6.33
2018-04-28T22:08:16.588Z,6.07
2018-04-28T22:10:27.003Z,6.43
2018-04-28T22:12:33.419Z,6.63
2018-04-28T22:14:41.696Z,7.10
2018-04-28T22:16:56.828Z,7.50
2018-04-28T22:19:00.886Z,7.10
2018-04-28T22:21:04.934Z,7.90
2018-04-28T22:23:11.217Z,7.80
2018-04-28T22:25:17.544Z,7.47
2018-04-28T22:27:21.591Z,7.70
2018-04-28T22:29:25.677Z,7.67
2018-04-28T22:31:29.814Z,7.30
2018-04-28T22:33:33.976Z,7.83
2018-04-28T22:35:49.045Z,7.10
2018-04-28T22:37:59.832Z,7.23
2018-04-28T22:40:04.060Z,6.80
2018-04-28T22:42:16.889Z,7.17
2018-04-28T22:44:23.151Z,6.97
2018-04-28T22:49:03.797Z,7.30
2018-04-28T22:51:08.003Z,7.93
2018-04-28T22:53:16.672Z,6.57
2018-04-28T22:55:25.017Z,7.40
2018-04-28T22:57:31.247Z,7.80
2018-04-28T22:59:37.354Z,6.67
2018-04-28T23:01:42.565Z,6.50
2018-04-28T23:03:48.760Z,6.60
2018-04-28T23:05:59.187Z,7.80
2018-04-28T23:08:11.776Z,7.83
2018-04-28T23:10:18.041Z,8.40
2018-04-28T23:12:33.306Z,8.50
2018-04-28T23:14:46.447Z,7.83
2018-04-28T23:16:54.820Z,7.30
2018-04-28T23:19:05.601Z,8.10
2018-04-28T23:21:14.157Z,8.33
2018-04-28T23:23:20.430Z,8.43
2018-04-28T23:25:28.788Z,8.30
2018-04-28T23:27:39.472Z,8.83
2018-04-28T23:29:45.911Z,10.10
2018-04-28T23:31:52.225Z,11.03
2018-04-28T23:34:07.394Z,9.63
2018-04-28T23:36:20.430Z,10.30
2018-04-28T23:38:44.277Z,10.00
2018-04-28T23:40:50.685Z,9.13
2018-04-28T23:42:59.110Z,8.93
2018-04-28T23:45:05.057Z,9.80
2018-04-28T23:47:11.423Z,10.50
2018-04-28T23:49:19.962Z,9.57
2018-04-28T23:51:30.540Z,10.13
2018-04-28T23:53:36.572Z,8.73
2018-04-28T23:55:40.661Z,8.27
2018-04-28T23:57:53.595Z,8.47
